Map

Track Data

SID SEASON NUMBER BASIN SUBBASIN NAME ISO_TIME NATURE LAT LON WMO_WIND WMO_PRES WMO_AGENCY TRACK_TYPE DIST2LAND LANDFALL IFLAG USA_AGENCY USA_ATCF_ID USA_LAT USA_LON USA_RECORD USA_STATUS USA_WIND USA_PRES USA_SSHS USA_R34_NE USA_R34_SE USA_R34_SW USA_R34_NW USA_R50_NE USA_R50_SE USA_R50_SW USA_R50_NW USA_R64_NE USA_R64_SE USA_R64_SW USA_R64_NW USA_POCI USA_ROCI USA_RMW USA_EYE TOKYO_LAT TOKYO_LON TOKYO_GRADE TOKYO_WIND TOKYO_PRES TOKYO_R50_DIR TOKYO_R50_LONG TOKYO_R50_SHORT TOKYO_R30_DIR TOKYO_R30_LONG TOKYO_R30_SHORT TOKYO_LAND CMA_LAT CMA_LON CMA_CAT CMA_WIND CMA_PRES HKO_LAT HKO_LON HKO_CAT HKO_WIND HKO_PRES NEWDELHI_LAT NEWDELHI_LON NEWDELHI_GRADE NEWDELHI_WIND NEWDELHI_PRES NEWDELHI_CI NEWDELHI_DP NEWDELHI_POCI REUNION_LAT REUNION_LON REUNION_TYPE REUNION_WIND REUNION_PRES REUNION_TNUM REUNION_CI REUNION_RMW REUNION_R34_NE REUNION_R34_SE REUNION_R34_SW REUNION_R34_NW REUNION_R50_NE REUNION_R50_SE REUNION_R50_SW REUNION_R50_NW REUNION_R64_NE REUNION_R64_SE REUNION_R64_SW REUNION_R64_NW BOM_LAT BOM_LON BOM_TYPE BOM_WIND BOM_PRES BOM_TNUM BOM_CI BOM_RMW BOM_R34_NE BOM_R34_SE BOM_R34_SW BOM_R34_NW BOM_R50_NE BOM_R50_SE BOM_R50_SW BOM_R50_NW BOM_R64_NE BOM_R64_SE BOM_R64_SW BOM_R64_NW BOM_ROCI BOM_POCI BOM_EYE BOM_POS_METHOD BOM_PRES_METHOD NADI_LAT NADI_LON NADI_CAT NADI_WIND NADI_PRES WELLINGTON_LAT WELLINGTON_LON WELLINGTON_WIND WELLINGTON_PRES DS824_LAT DS824_LON DS824_STAGE DS824_WIND DS824_PRES TD9636_LAT TD9636_LON TD9636_STAGE TD9636_WIND TD9636_PRES TD9635_LAT TD9635_LON TD9635_WIND TD9635_PRES TD9635_ROCI NEUMANN_LAT NEUMANN_LON NEUMANN_CLASS NEUMANN_WIND NEUMANN_PRES MLC_LAT MLC_LON MLC_CLASS MLC_WIND MLC_PRES USA_GUST BOM_GUST BOM_GUST_PER REUNION_GUST REUNION_GUST_PER USA_SEAHGT USA_SEARAD_NE USA_SEARAD_SE USA_SEARAD_SW USA_SEARAD_NW STORM_SPEED STORM_DIR
1940162N08146 1940 27 WP MM NOT_NAMED 1940-06-09 12:00:00 NR 7.60000 146.000 main 1089 1089 __________O___ -1 7.60000 146.000 2 26 326
1940162N08146 1940 27 WP MM NOT_NAMED 1940-06-09 15:00:00 NR 8.68534 145.260 main 1218 1218 __________P___ -1 8.68534 145.260 2 26 325
1940162N08146 1940 27 WP MM NOT_NAMED 1940-06-09 18:00:00 NR 9.69645 144.523 main 1342 1342 __________P___ -1 9.69645 144.523 2 24 322
1940162N08146 1940 27 WP MM NOT_NAMED 1940-06-09 21:00:00 NR 10.5591 143.800 main 1456 1456 __________P___ -1 10.5591 143.800 2 21 317
1940162N08146 1940 27 WP MM NOT_NAMED 1940-06-10 00:00:00 NR 11.2000 143.100 main 1533 1533 __________O___ -1 11.2000 143.100 4 17 307
1940162N08146 1940 27 WP MM NOT_NAMED 1940-06-10 03:00:00 NR 11.5778 142.433 main 1550 1545 __________P___ -1 11.5778 142.433 4 14 294
1940162N08146 1940 27 WP MM NOT_NAMED 1940-06-10 06:00:00 NR 11.7768 141.807 main 1553 1541 __________P___ -1 11.7768 141.807 4 12 286
1940162N08146 1940 27 WP MM NOT_NAMED 1940-06-10 09:00:00 NR 11.9124 141.227 main 1538 1532 __________P___ -1 11.9124 141.227 4 11 287
1940162N08146 1940 27 WP MM NOT_NAMED 1940-06-10 12:00:00 NR 12.1000 140.700 main 1539 1535 __________O___ -1 12.1000 140.700 4 12 304
1940162N08146 1940 27 WP MM NOT_NAMED 1940-06-10 15:00:00 NR 12.5592 140.237 main 1574 1539 __________P___ -1 12.5592 140.237 4 13 319
1940162N08146 1940 27 WP MM NOT_NAMED 1940-06-10 18:00:00 NR 13.0789 139.821 main 1541 1506 __________P___ -1 13.0789 139.821 4 13 322
1940162N08146 1940 27 WP MM NOT_NAMED 1940-06-10 21:00:00 NR 13.5842 139.419 main 1506 1472 __________P___ -1 13.5842 139.419 4 12 319
1940162N08146 1940 27 WP MM NOT_NAMED 1940-06-11 00:00:00 NR 14.0000 139.000 main 1472 1424 __________O___ -1 14.0000 139.000 4 11 307
1940162N08146 1940 27 WP MM NOT_NAMED 1940-06-11 03:00:00 NR 14.2337 138.517 main 1424 1375 __________P___ -1 14.2337 138.517 4 10 291
1940162N08146 1940 27 WP MM NOT_NAMED 1940-06-11 06:00:00 NR 14.3699 138.014 main 1375 1322 __________P___ -1 14.3699 138.014 4 10 282
1940162N08146 1940 27 WP MM NOT_NAMED 1940-06-11 09:00:00 NR 14.4461 137.504 main 1322 1271 __________P___ -1 14.4461 137.504 4 10 278
1940162N08146 1940 27 WP MM NOT_NAMED 1940-06-11 12:00:00 NR 14.5000 137.000 main 1271 1220 __________O___ -1 14.5000 137.000 4 10 278
1940162N08146 1940 27 WP MM NOT_NAMED 1940-06-11 15:00:00 NR 14.5770 136.505 main 1220 1167 __________P___ -1 14.5770 136.505 4 10 279
1940162N08146 1940 27 WP MM NOT_NAMED 1940-06-11 18:00:00 NR 14.6423 136.019 main 1167 1127 __________P___ -1 14.6423 136.019 4 9 278
1940162N08146 1940 27 WP MM NOT_NAMED 1940-06-11 21:00:00 NR 14.7114 135.549 main 1117 1078 __________P___ -1 14.7114 135.549 4 9 280
1940162N08146 1940 27 WP MM NOT_NAMED 1940-06-12 00:00:00 NR 14.8000 135.100 main 1078 1039 __________O___ -1 14.8000 135.100 4 9 284
1940162N08146 1940 27 WP MM NOT_NAMED 1940-06-12 03:00:00 NR 14.9159 134.674 main 1039 1001 __________P___ -1 14.9159 134.674 4 8 288
1940162N08146 1940 27 WP MM NOT_NAMED 1940-06-12 06:00:00 NR 15.0546 134.270 main 1005 967 __________P___ -1 15.0546 134.270 4 8 291
1940162N08146 1940 27 WP MM NOT_NAMED 1940-06-12 09:00:00 NR 15.2159 133.880 main 967 935 __________P___ -1 15.2159 133.880 4 8 295
1940162N08146 1940 27 WP MM NOT_NAMED 1940-06-12 12:00:00 NR 15.4000 133.500 main 935 900 __________O___ -1 15.4000 133.500 4 8 294
1940162N08146 1940 27 WP MM NOT_NAMED 1940-06-12 15:00:00 NR 15.5463 133.125 main 900 880 __________P___ -1 15.5463 133.125 4 8 294
1940162N08146 1940 27 WP MM NOT_NAMED 1940-06-12 18:00:00 NR 15.7221 132.756 main 880 851 __________P___ -1 15.7221 132.756 4 8 300
1940162N08146 1940 27 WP MM NOT_NAMED 1940-06-12 21:00:00 NR 15.9619 132.384 main 857 831 __________P___ -1 15.9619 132.384 4 9 309
1940162N08146 1940 27 WP MM NOT_NAMED 1940-06-13 00:00:00 NR 16.3000 132.000 main 837 826 __________O___ -1 16.3000 132.000 4 13 316
1940162N08146 1940 27 WP MM NOT_NAMED 1940-06-13 03:00:00 NR 16.8928 131.455 main 832 804 __________P___ -1 16.8928 131.455 4 16 321
1940162N08146 1940 27 WP MM NOT_NAMED 1940-06-13 06:00:00 NR 17.5633 130.914 main 809 802 __________P___ -1 17.5633 130.914 4 16 324
1940162N08146 1940 27 WP MM NOT_NAMED 1940-06-13 09:00:00 NR 18.1769 130.491 main 810 806 __________P___ -1 18.1769 130.491 4 12 331
1940162N08146 1940 27 WP MM NOT_NAMED 1940-06-13 12:00:00 NR 18.6000 130.300 main 820 820 __________O___ -1 18.6000 130.300 4 5 14
1940162N08146 1940 27 WP MM NOT_NAMED 1940-06-13 15:00:00 NR 18.7042 130.631 main 852 852 __________P___ -1 18.7042 130.631 4 8 90
1940162N08146 1940 27 WP MM NOT_NAMED 1940-06-13 18:00:00 NR 18.6017 131.174 main 896 896 __________P___ -1 18.6017 131.174 4 11 109
1940162N08146 1940 27 WP MM NOT_NAMED 1940-06-13 21:00:00 NR 18.3478 131.705 main 922 922 __________P___ -1 18.3478 131.705 4 10 128
1940162N08146 1940 27 WP MM NOT_NAMED 1940-06-14 00:00:00 NR 18.0000 132.000 main 933 893 __________O___ -1 18.0000 132.000 4 8 174
1940162N08146 1940 27 WP MM NOT_NAMED 1940-06-14 03:00:00 NR 17.5402 131.786 main 888 821 __________P___ -1 17.5402 131.786 4 12 214
1940162N08146 1940 27 WP MM NOT_NAMED 1940-06-14 06:00:00 NR 17.0226 131.316 main 817 740 __________P___ -1 17.0226 131.316 4 14 227
1940162N08146 1940 27 WP MM NOT_NAMED 1940-06-14 09:00:00 NR 16.5686 130.689 main 740 658 __________P___ -1 16.5686 130.689 4 15 240
1940162N08146 1940 27 WP MM NOT_NAMED 1940-06-14 12:00:00 NR 16.3000 130.000 main 658 600 __________O___ -1 16.3000 130.000 4 13 258
1940162N08146 1940 27 WP MM NOT_NAMED 1940-06-14 15:00:00 NR 16.2896 129.342 main 590 545 __________P___ -1 16.2896 129.342 4 13 278
1940162N08146 1940 27 WP MM NOT_NAMED 1940-06-14 18:00:00 NR 16.4842 128.649 main 536 504 __________P___ -1 16.4842 128.649 4 14 294
1940162N08146 1940 27 WP MM NOT_NAMED 1940-06-14 21:00:00 NR 16.8616 127.982 main 511 495 __________P___ -1 16.8616 127.982 4 15 307
1940162N08146 1940 27 WP MM NOT_NAMED 1940-06-15 00:00:00 NR 17.4000 127.400 main 504 479 __________O___ -1 17.4000 127.400 4 16 319
1940162N08146 1940 27 WP MM NOT_NAMED 1940-06-15 03:00:00 NR 18.0444 126.907 main 479 444 __________P___ -1 18.0444 126.907 4 17 330
1940162N08146 1940 27 WP MM NOT_NAMED 1940-06-15 06:00:00 NR 18.8344 126.514 main 444 432 __________P___ -1 18.8344 126.514 4 18 339
1940162N08146 1940 27 WP MM NOT_NAMED 1940-06-15 09:00:00 NR 19.7072 126.238 main 434 434 __________P___ -1 19.7072 126.238 4 18 348
1940162N08146 1940 27 WP MM NOT_NAMED 1940-06-15 12:00:00 NR 20.6000 126.100 main 468 468 __________O___ -1 20.6000 126.100 4 18 356
1940162N08146 1940 27 WP MM NOT_NAMED 1940-06-15 15:00:00 NR 21.4623 126.109 main 515 502 __________P___ -1 21.4623 126.109 4 17 4
1940162N08146 1940 27 WP MM NOT_NAMED 1940-06-15 18:00:00 NR 22.2928 126.237 main 500 483 __________P___ -1 22.2928 126.237 4 17 11
1940162N08146 1940 27 WP MM NOT_NAMED 1940-06-15 21:00:00 NR 23.1019 126.447 main 483 483 __________P___ -1 23.1019 126.447 4 17 15
1940162N08146 1940 27 WP MM NOT_NAMED 1940-06-16 00:00:00 NR 23.9000 126.700 main 491 __________O___ -1 23.9000 126.700 4 17 16

Digital Typhoon Data and Search

About IBTrACS Database

This database is a web-friendly format of International Best Track Archive for Climate Stewardship (IBTrACS), a global best track data archive curated by NOAA dating back to 1842.

Updated: 2021-12-03